sensor_id;sensor_type;location;lat;lon;timestamp;temperature;humidity
37050;DHT22;22958;51.232;6.826;2023-06-01T00:00:42;17.00;99.90
37050;DHT22;22958;51.232;6.826;2023-06-01T00:03:10;16.90;99.90
37050;DHT22;22958;51.232;6.826;2023-06-01T00:05:35;16.90;99.90
37050;DHT22;22958;51.232;6.826;2023-06-01T00:08:01;16.90;99.90
37050;DHT22;22958;51.232;6.826;2023-06-01T00:10:29;16.90;99.90
37050;DHT22;22958;51.232;6.826;2023-06-01T00:12:55;16.80;99.90
37050;DHT22;22958;51.232;6.826;2023-06-01T00:15:20;16.80;99.90
37050;DHT22;22958;51.232;6.826;2023-06-01T00:17:46;16.70;99.90
37050;DHT22;22958;51.232;6.826;2023-06-01T00:20:12;16.70;99.90
37050;DHT22;22958;51.232;6.826;2023-06-01T00:22:37;16.60;99.90
37050;DHT22;22958;51.232;6.826;2023-06-01T00:25:05;16.60;99.90
37050;DHT22;22958;51.232;6.826;2023-06-01T00:27:31;16.50;99.90
37050;DHT22;22958;51.232;6.826;2023-06-01T00:29:57;16.40;99.90
37050;DHT22;22958;51.232;6.826;2023-06-01T00:32:22;16.40;99.90
37050;DHT22;22958;51.232;6.826;2023-06-01T00:34:48;16.30;99.90
37050;DHT22;22958;51.232;6.826;2023-06-01T00:37:13;16.30;99.90
37050;DHT22;22958;51.232;6.826;2023-06-01T00:39:39;16.20;99.90
37050;DHT22;22958;51.232;6.826;2023-06-01T00:42:05;16.20;99.90
37050;DHT22;22958;51.232;6.826;2023-06-01T00:44:30;16.10;99.90
37050;DHT22;22958;51.232;6.826;2023-06-01T00:46:56;16.00;99.90
37050;DHT22;22958;51.232;6.826;2023-06-01T00:49:24;16.00;99.90
37050;DHT22;22958;51.232;6.826;2023-06-01T00:51:50;15.90;99.90
37050;DHT22;22958;51.232;6.826;2023-06-01T00:54:16;15.90;99.90
37050;DHT22;22958;51.232;6.826;2023-06-01T00:56:42;15.80;99.90
37050;DHT22;22958;51.232;6.826;2023-06-01T00:59:08;15.80;99.90
37050;DHT22;22958;51.232;6.826;2023-06-01T01:01:34;15.80;99.90
37050;DHT22;22958;51.232;6.826;2023-06-01T01:04:01;15.70;99.90
37050;DHT22;22958;51.232;6.826;2023-06-01T01:06:53;15.70;99.90
37050;DHT22;22958;51.232;6.826;2023-06-01T01:11:59;15.50;99.90
37050;DHT22;22958;51.232;6.826;2023-06-01T01:14:55;15.40;99.90
37050;DHT22;22958;51.232;6.826;2023-06-01T01:17:36;15.40;99.90
37050;DHT22;22958;51.232;6.826;2023-06-01T01:20:10;15.40;99.90
37050;DHT22;22958;51.232;6.826;2023-06-01T01:25:20;15.30;99.90
37050;DHT22;22958;51.232;6.826;2023-06-01T01:30:15;15.20;99.90
37050;DHT22;22958;51.232;6.826;2023-06-01T01:32:43;15.20;99.90
37050;DHT22;22958;51.232;6.826;2023-06-01T01:35:09;15.20;99.90
37050;DHT22;22958;51.232;6.826;2023-06-01T01:37:35;15.10;99.90
37050;DHT22;22958;51.232;6.826;2023-06-01T01:40:00;15.10;99.90
37050;DHT22;22958;51.232;6.826;2023-06-01T01:42:27;15.10;99.90
37050;DHT22;22958;51.232;6.826;2023-06-01T01:44:53;15.00;99.90
37050;DHT22;22958;51.232;6.826;2023-06-01T01:49:50;14.90;99.90
37050;DHT22;22958;51.232;6.826;2023-06-01T01:52:22;14.90;99.90
37050;DHT22;22958;51.232;6.826;2023-06-01T01:54:51;14.80;99.90
37050;DHT22;22958;51.232;6.826;2023-06-01T01:57:18;14.70;99.90
37050;DHT22;22958;51.232;6.826;2023-06-01T01:59:45;14.60;99.90
37050;DHT22;22958;51.232;6.826;2023-06-01T02:02:11;14.60;99.90
37050;DHT22;22958;51.232;6.826;2023-06-01T02:04:41;14.50;99.90
37050;DHT22;22958;51.232;6.826;2023-06-01T02:07:07;14.50;99.90
37050;DHT22;22958;51.232;6.826;2023-06-01T02:09:33;14.50;99.90
37050;DHT22;22958;51.232;6.826;2023-06-01T02:11:58;14.40;99.90
37050;DHT22;22958;51.232;6.826;2023-06-01T02:14:24;14.40;99.90
37050;DHT22;22958;51.232;6.826;2023-06-01T02:16:49;14.30;99.90
37050;DHT22;22958;51.232;6.826;2023-06-01T02:19:15;14.20;99.90
37050;DHT22;22958;51.232;6.826;2023-06-01T02:21:42;14.10;99.90
37050;DHT22;22958;51.232;6.826;2023-06-01T02:24:08;14.10;99.90
37050;DHT22;22958;51.232;6.826;2023-06-01T02:26:34;14.00;99.90
37050;DHT22;22958;51.232;6.826;2023-06-01T02:29:00;14.00;99.90
37050;DHT22;22958;51.232;6.826;2023-06-01T02:31:28;14.00;99.90
37050;DHT22;22958;51.232;6.826;2023-06-01T02:33:53;13.90;99.90
37050;DHT22;22958;51.232;6.826;2023-06-01T02:36:19;13.80;99.90
37050;DHT22;22958;51.232;6.826;2023-06-01T02:38:46;13.80;99.90
37050;DHT22;22958;51.232;6.826;2023-06-01T02:41:12;13.70;99.90
37050;DHT22;22958;51.232;6.826;2023-06-01T02:43:38;13.60;99.90
37050;DHT22;22958;51.232;6.826;2023-06-01T02:46:03;13.60;99.90
37050;DHT22;22958;51.232;6.826;2023-06-01T02:48:30;13.50;99.90
37050;DHT22;22958;51.232;6.826;2023-06-01T02:50:55;13.50;99.90
37050;DHT22;22958;51.232;6.826;2023-06-01T02:53:21;13.40;99.90
37050;DHT22;22958;51.232;6.826;2023-06-01T02:55:47;13.30;99.90
37050;DHT22;22958;51.232;6.826;2023-06-01T02:58:12;13.30;99.90
37050;DHT22;22958;51.232;6.826;2023-06-01T03:00:42;13.20;99.90
37050;DHT22;22958;51.232;6.826;2023-06-01T03:03:08;13.10;99.90
37050;DHT22;22958;51.232;6.826;2023-06-01T03:05:33;13.10;99.90
37050;DHT22;22958;51.232;6.826;2023-06-01T03:08:01;13.10;99.90
37050;DHT22;22958;51.232;6.826;2023-06-01T03:10:27;13.10;99.90
37050;DHT22;22958;51.232;6.826;2023-06-01T03:12:52;13.10;99.90
37050;DHT22;22958;51.232;6.826;2023-06-01T03:15:18;13.00;99.90
37050;DHT22;22958;51.232;6.826;2023-06-01T03:17:43;13.00;99.90
37050;DHT22;22958;51.232;6.826;2023-06-01T03:20:09;13.00;99.90
37050;DHT22;22958;51.232;6.826;2023-06-01T03:22:43;13.00;99.90
37050;DHT22;22958;51.232;6.826;2023-06-01T03:25:09;12.90;99.90
37050;DHT22;22958;51.232;6.826;2023-06-01T03:27:36;12.90;99.90
37050;DHT22;22958;51.232;6.826;2023-06-01T03:30:03;12.90;99.90
37050;DHT22;22958;51.232;6.826;2023-06-01T03:32:29;12.80;99.90
37050;DHT22;22958;51.232;6.826;2023-06-01T03:34:55;12.80;99.90
37050;DHT22;22958;51.232;6.826;2023-06-01T03:37:20;12.70;99.90
37050;DHT22;22958;51.232;6.826;2023-06-01T03:39:46;12.70;99.90
37050;DHT22;22958;51.232;6.826;2023-06-01T03:42:13;12.70;99.90
37050;DHT22;22958;51.232;6.826;2023-06-01T03:44:39;12.60;99.90
37050;DHT22;22958;51.232;6.826;2023-06-01T03:47:06;12.60;99.90
37050;DHT22;22958;51.232;6.826;2023-06-01T03:49:32;12.60;99.90
37050;DHT22;22958;51.232;6.826;2023-06-01T03:51:58;12.60;99.90
37050;DHT22;22958;51.232;6.826;2023-06-01T03:54:23;12.60;99.90
37050;DHT22;22958;51.232;6.826;2023-06-01T03:56:49;12.60;99.90
37050;DHT22;22958;51.232;6.826;2023-06-01T03:59:14;12.50;99.90
37050;DHT22;22958;51.232;6.826;2023-06-01T04:01:41;12.60;99.90
37050;DHT22;22958;51.232;6.826;2023-06-01T04:04:08;12.70;99.90
37050;DHT22;22958;51.232;6.826;2023-06-01T04:06:34;12.60;99.90
37050;DHT22;22958;51.232;6.826;2023-06-01T04:09:04;12.60;99.90
37050;DHT22;22958;51.232;6.826;2023-06-01T04:11:34;12.60;99.90
37050;DHT22;22958;51.232;6.826;2023-06-01T04:14:00;12.80;99.90
37050;DHT22;22958;51.232;6.826;2023-06-01T04:16:26;12.80;99.90
37050;DHT22;22958;51.232;6.826;2023-06-01T04:18:52;13.00;99.90
37050;DHT22;22958;51.232;6.826;2023-06-01T04:21:20;13.00;99.90
37050;DHT22;22958;51.232;6.826;2023-06-01T04:23:46;13.00;99.90
37050;DHT22;22958;51.232;6.826;2023-06-01T04:26:12;13.00;99.90
37050;DHT22;22958;51.232;6.826;2023-06-01T04:28:37;12.90;99.90
37050;DHT22;22958;51.232;6.826;2023-06-01T04:31:12;12.90;99.90
37050;DHT22;22958;51.232;6.826;2023-06-01T04:33:46;12.90;99.90
37050;DHT22;22958;51.232;6.826;2023-06-01T04:36:22;12.90;99.90
37050;DHT22;22958;51.232;6.826;2023-06-01T04:38:51;12.90;99.90
37050;DHT22;22958;51.232;6.826;2023-06-01T04:41:20;13.00;99.90
37050;DHT22;22958;51.232;6.826;2023-06-01T04:43:50;12.90;99.90
37050;DHT22;22958;51.232;6.826;2023-06-01T04:46:21;12.80;99.90
37050;DHT22;22958;51.232;6.826;2023-06-01T04:48:49;12.80;99.90
37050;DHT22;22958;51.232;6.826;2023-06-01T04:51:17;12.80;99.90
37050;DHT22;22958;51.232;6.826;2023-06-01T04:53:47;12.60;99.90
37050;DHT22;22958;51.232;6.826;2023-06-01T04:56:18;12.70;99.90
37050;DHT22;22958;51.232;6.826;2023-06-01T04:58:45;12.80;99.90
37050;DHT22;22958;51.232;6.826;2023-06-01T05:01:13;13.00;99.90
37050;DHT22;22958;51.232;6.826;2023-06-01T05:03:44;12.90;99.90
37050;DHT22;22958;51.232;6.826;2023-06-01T05:06:11;12.70;99.90
37050;DHT22;22958;51.232;6.826;2023-06-01T05:08:40;12.80;99.90
37050;DHT22;22958;51.232;6.826;2023-06-01T05:11:07;12.60;99.90
37050;DHT22;22958;51.232;6.826;2023-06-01T05:13:40;12.80;99.90
37050;DHT22;22958;51.232;6.826;2023-06-01T05:16:07;12.90;99.90
37050;DHT22;22958;51.232;6.826;2023-06-01T05:18:34;12.90;99.90
37050;DHT22;22958;51.232;6.826;2023-06-01T05:21:00;13.00;99.90
37050;DHT22;22958;51.232;6.826;2023-06-01T05:23:26;13.10;99.90
37050;DHT22;22958;51.232;6.826;2023-06-01T05:25:53;13.00;99.90
37050;DHT22;22958;51.232;6.826;2023-06-01T05:28:25;13.00;99.90
37050;DHT22;22958;51.232;6.826;2023-06-01T05:30:50;13.10;99.90
37050;DHT22;22958;51.232;6.826;2023-06-01T05:33:16;13.10;99.90
37050;DHT22;22958;51.232;6.826;2023-06-01T05:35:41;13.20;99.90
37050;DHT22;22958;51.232;6.826;2023-06-01T05:38:07;13.10;99.90
37050;DHT22;22958;51.232;6.826;2023-06-01T05:40:32;13.20;99.90
37050;DHT22;22958;51.232;6.826;2023-06-01T05:42:58;13.10;99.90
37050;DHT22;22958;51.232;6.826;2023-06-01T05:45:23;13.30;99.90
37050;DHT22;22958;51.232;6.826;2023-06-01T05:47:49;13.40;99.90
37050;DHT22;22958;51.232;6.826;2023-06-01T05:50:14;13.40;99.90
37050;DHT22;22958;51.232;6.826;2023-06-01T05:52:40;13.40;99.90
37050;DHT22;22958;51.232;6.826;2023-06-01T05:55:08;13.40;99.90
37050;DHT22;22958;51.232;6.826;2023-06-01T05:57:33;13.40;99.90
37050;DHT22;22958;51.232;6.826;2023-06-01T05:59:59;13.50;99.90
37050;DHT22;22958;51.232;6.826;2023-06-01T06:02:24;13.50;99.90
37050;DHT22;22958;51.232;6.826;2023-06-01T06:04:50;13.50;99.90
37050;DHT22;22958;51.232;6.826;2023-06-01T06:07:15;13.60;99.90
37050;DHT22;22958;51.232;6.826;2023-06-01T06:09:41;13.60;99.90
37050;DHT22;22958;51.232;6.826;2023-06-01T06:12:07;13.10;99.90
37050;DHT22;22958;51.232;6.826;2023-06-01T06:14:32;12.80;99.90
37050;DHT22;22958;51.232;6.826;2023-06-01T06:16:58;13.00;99.90
37050;DHT22;22958;51.232;6.826;2023-06-01T06:19:25;13.10;99.90
37050;DHT22;22958;51.232;6.826;2023-06-01T06:21:51;13.20;99.90
37050;DHT22;22958;51.232;6.826;2023-06-01T06:24:16;13.30;99.90
37050;DHT22;22958;51.232;6.826;2023-06-01T06:26:42;13.40;99.90
37050;DHT22;22958;51.232;6.826;2023-06-01T06:29:07;13.40;99.90
37050;DHT22;22958;51.232;6.826;2023-06-01T06:31:33;13.30;99.90
37050;DHT22;22958;51.232;6.826;2023-06-01T06:33:59;13.50;99.90
37050;DHT22;22958;51.232;6.826;2023-06-01T06:36:25;13.40;99.90
37050;DHT22;22958;51.232;6.826;2023-06-01T06:38:50;13.40;99.90
37050;DHT22;22958;51.232;6.826;2023-06-01T06:41:16;13.60;99.90
37050;DHT22;22958;51.232;6.826;2023-06-01T06:43:41;13.70;99.90
37050;DHT22;22958;51.232;6.826;2023-06-01T06:46:07;13.60;99.90
37050;DHT22;22958;51.232;6.826;2023-06-01T06:48:33;13.60;99.90
37050;DHT22;22958;51.232;6.826;2023-06-01T06:50:59;13.70;99.90
37050;DHT22;22958;51.232;6.826;2023-06-01T06:53:24;13.90;99.90
37050;DHT22;22958;51.232;6.826;2023-06-01T06:55:50;13.90;99.90
37050;DHT22;22958;51.232;6.826;2023-06-01T06:58:15;13.70;99.90
37050;DHT22;22958;51.232;6.826;2023-06-01T07:00:41;13.70;99.90
37050;DHT22;22958;51.232;6.826;2023-06-01T07:03:07;13.90;99.90
37050;DHT22;22958;51.232;6.826;2023-06-01T07:05:33;14.00;99.90
37050;DHT22;22958;51.232;6.826;2023-06-01T07:07:58;14.30;99.90
37050;DHT22;22958;51.232;6.826;2023-06-01T07:10:24;14.30;99.90
37050;DHT22;22958;51.232;6.826;2023-06-01T07:12:51;14.70;99.90
37050;DHT22;22958;51.232;6.826;2023-06-01T07:15:16;14.40;99.90
37050;DHT22;22958;51.232;6.826;2023-06-01T07:17:42;14.30;99.90
37050;DHT22;22958;51.232;6.826;2023-06-01T07:20:08;14.50;99.90
37050;DHT22;22958;51.232;6.826;2023-06-01T07:22:36;14.70;99.90
37050;DHT22;22958;51.232;6.826;2023-06-01T07:25:02;14.70;99.90
37050;DHT22;22958;51.232;6.826;2023-06-01T07:27:27;14.80;99.90
37050;DHT22;22958;51.232;6.826;2023-06-01T07:29:53;14.30;99.90
37050;DHT22;22958;51.232;6.826;2023-06-01T07:32:24;13.80;99.90
37050;DHT22;22958;51.232;6.826;2023-06-01T07:34:51;13.50;99.90
37050;DHT22;22958;51.232;6.826;2023-06-01T07:37:17;13.80;99.90
37050;DHT22;22958;51.232;6.826;2023-06-01T07:39:48;13.60;99.90
37050;DHT22;22958;51.232;6.826;2023-06-01T07:42:13;13.40;99.90
37050;DHT22;22958;51.232;6.826;2023-06-01T07:44:40;13.40;99.90
37050;DHT22;22958;51.232;6.826;2023-06-01T07:47:06;13.00;99.90
37050;DHT22;22958;51.232;6.826;2023-06-01T07:49:32;13.40;99.90
37050;DHT22;22958;51.232;6.826;2023-06-01T07:52:01;13.80;99.90
37050;DHT22;22958;51.232;6.826;2023-06-01T07:54:27;13.60;99.90
37050;DHT22;22958;51.232;6.826;2023-06-01T07:56:52;13.70;99.90
37050;DHT22;22958;51.232;6.826;2023-06-01T07:59:19;13.90;99.90
37050;DHT22;22958;51.232;6.826;2023-06-01T08:01:48;14.20;99.90
37050;DHT22;22958;51.232;6.826;2023-06-01T08:04:14;14.30;99.90
37050;DHT22;22958;51.232;6.826;2023-06-01T08:06:39;14.60;99.90
37050;DHT22;22958;51.232;6.826;2023-06-01T08:09:06;15.00;99.90
37050;DHT22;22958;51.232;6.826;2023-06-01T08:11:32;15.00;99.90
37050;DHT22;22958;51.232;6.826;2023-06-01T08:13:58;14.90;99.90
37050;DHT22;22958;51.232;6.826;2023-06-01T08:16:28;15.10;99.90
37050;DHT22;22958;51.232;6.826;2023-06-01T08:18:54;15.10;99.90
37050;DHT22;22958;51.232;6.826;2023-06-01T08:21:22;15.40;99.90
37050;DHT22;22958;51.232;6.826;2023-06-01T08:23:48;15.50;99.90
37050;DHT22;22958;51.232;6.826;2023-06-01T08:26:16;15.50;99.90
37050;DHT22;22958;51.232;6.826;2023-06-01T08:28:42;15.40;99.90
37050;DHT22;22958;51.232;6.826;2023-06-01T08:31:08;15.50;99.90
37050;DHT22;22958;51.232;6.826;2023-06-01T08:33:34;14.80;99.90
37050;DHT22;22958;51.232;6.826;2023-06-01T08:35:59;14.70;99.90
37050;DHT22;22958;51.232;6.826;2023-06-01T08:38:24;14.80;99.90
37050;DHT22;22958;51.232;6.826;2023-06-01T08:40:55;14.70;99.90
37050;DHT22;22958;51.232;6.826;2023-06-01T08:43:25;15.10;99.90
37050;DHT22;22958;51.232;6.826;2023-06-01T08:45:57;15.50;99.90
37050;DHT22;22958;51.232;6.826;2023-06-01T08:48:23;15.60;99.90
37050;DHT22;22958;51.232;6.826;2023-06-01T08:50:50;15.60;99.90
37050;DHT22;22958;51.232;6.826;2023-06-01T08:53:20;16.00;99.90
37050;DHT22;22958;51.232;6.826;2023-06-01T08:55:54;16.30;99.90
37050;DHT22;22958;51.232;6.826;2023-06-01T08:58:20;16.40;99.90
37050;DHT22;22958;51.232;6.826;2023-06-01T09:00:50;16.20;99.90
37050;DHT22;22958;51.232;6.826;2023-06-01T09:03:16;16.10;99.90
37050;DHT22;22958;51.232;6.826;2023-06-01T09:05:41;16.00;99.90
37050;DHT22;22958;51.232;6.826;2023-06-01T09:08:08;15.80;99.90
37050;DHT22;22958;51.232;6.826;2023-06-01T09:10:35;15.60;99.90
37050;DHT22;22958;51.232;6.826;2023-06-01T09:13:00;15.80;99.90
37050;DHT22;22958;51.232;6.826;2023-06-01T09:15:26;16.00;99.90
37050;DHT22;22958;51.232;6.826;2023-06-01T09:18:05;16.30;99.90
37050;DHT22;22958;51.232;6.826;2023-06-01T09:20:30;16.30;99.90
37050;DHT22;22958;51.232;6.826;2023-06-01T09:22:58;16.50;99.90
37050;DHT22;22958;51.232;6.826;2023-06-01T09:25:33;16.50;99.90
37050;DHT22;22958;51.232;6.826;2023-06-01T09:28:00;16.30;99.90
37050;DHT22;22958;51.232;6.826;2023-06-01T09:30:40;16.40;99.90
37050;DHT22;22958;51.232;6.826;2023-06-01T09:33:10;16.50;99.90
37050;DHT22;22958;51.232;6.826;2023-06-01T09:35:40;16.40;99.90
37050;DHT22;22958;51.232;6.826;2023-06-01T09:38:06;16.70;99.90
37050;DHT22;22958;51.232;6.826;2023-06-01T09:40:33;16.40;99.90
37050;DHT22;22958;51.232;6.826;2023-06-01T09:42:59;16.90;99.90
37050;DHT22;22958;51.232;6.826;2023-06-01T09:45:25;17.40;99.90
37050;DHT22;22958;51.232;6.826;2023-06-01T09:47:52;17.50;99.90
37050;DHT22;22958;51.232;6.826;2023-06-01T09:50:32;17.60;99.90
37050;DHT22;22958;51.232;6.826;2023-06-01T09:52:59;16.90;99.90
37050;DHT22;22958;51.232;6.826;2023-06-01T09:55:24;16.70;99.90
37050;DHT22;22958;51.232;6.826;2023-06-01T09:57:50;16.80;99.90
37050;DHT22;22958;51.232;6.826;2023-06-01T10:00:22;17.00;99.90
37050;DHT22;22958;51.232;6.826;2023-06-01T10:02:51;17.30;99.90
37050;DHT22;22958;51.232;6.826;2023-06-01T10:05:17;17.20;99.90
37050;DHT22;22958;51.232;6.826;2023-06-01T10:07:44;17.20;99.90
37050;DHT22;22958;51.232;6.826;2023-06-01T10:10:13;17.60;99.90
37050;DHT22;22958;51.232;6.826;2023-06-01T10:12:39;17.60;99.90
37050;DHT22;22958;51.232;6.826;2023-06-01T10:15:05;17.90;99.90
37050;DHT22;22958;51.232;6.826;2023-06-01T10:17:33;18.30;99.90
37050;DHT22;22958;51.232;6.826;2023-06-01T10:20:01;18.30;99.90
37050;DHT22;22958;51.232;6.826;2023-06-01T10:22:27;18.70;99.90
37050;DHT22;22958;51.232;6.826;2023-06-01T10:24:58;18.70;99.90
37050;DHT22;22958;51.232;6.826;2023-06-01T10:27:38;18.50;99.90
37050;DHT22;22958;51.232;6.826;2023-06-01T10:30:08;18.00;99.90
37050;DHT22;22958;51.232;6.826;2023-06-01T10:35:07;17.60;99.90
37050;DHT22;22958;51.232;6.826;2023-06-01T10:37:33;17.60;99.90
37050;DHT22;22958;51.232;6.826;2023-06-01T10:42:44;18.00;99.90
37050;DHT22;22958;51.232;6.826;2023-06-01T10:48:02;18.20;99.90
37050;DHT22;22958;51.232;6.826;2023-06-01T10:50:27;18.80;99.90
37050;DHT22;22958;51.232;6.826;2023-06-01T10:52:54;18.80;99.90
37050;DHT22;22958;51.232;6.826;2023-06-01T10:55:24;18.60;99.90
37050;DHT22;22958;51.232;6.826;2023-06-01T10:57:50;19.00;99.90
37050;DHT22;22958;51.232;6.826;2023-06-01T11:02:57;19.70;99.90
37050;DHT22;22958;51.232;6.826;2023-06-01T11:05:43;19.70;99.90
37050;DHT22;22958;51.232;6.826;2023-06-01T11:13:28;20.50;99.90
37050;DHT22;22958;51.232;6.826;2023-06-01T11:18:54;22.30;98.10
37050;DHT22;22958;51.232;6.826;2023-06-01T11:21:35;24.40;93.60
37050;DHT22;22958;51.232;6.826;2023-06-01T11:26:37;25.20;90.00
37050;DHT22;22958;51.232;6.826;2023-06-01T11:29:08;26.30;87.40
37050;DHT22;22958;51.232;6.826;2023-06-01T11:34:05;26.20;77.90
37050;DHT22;22958;51.232;6.826;2023-06-01T11:36:36;26.20;77.20
37050;DHT22;22958;51.232;6.826;2023-06-01T11:39:03;25.30;78.20
37050;DHT22;22958;51.232;6.826;2023-06-01T11:41:28;27.00;75.30
37050;DHT22;22958;51.232;6.826;2023-06-01T11:43:58;23.60;80.90
37050;DHT22;22958;51.232;6.826;2023-06-01T11:46:24;24.10;79.00
37050;DHT22;22958;51.232;6.826;2023-06-01T11:49:07;24.00;80.50
37050;DHT22;22958;51.232;6.826;2023-06-01T11:51:38;25.30;76.20
37050;DHT22;22958;51.232;6.826;2023-06-01T11:54:08;24.90;77.70
37050;DHT22;22958;51.232;6.826;2023-06-01T11:56:35;24.00;78.50
37050;DHT22;22958;51.232;6.826;2023-06-01T11:59:02;25.50;75.80
37050;DHT22;22958;51.232;6.826;2023-06-01T12:01:36;25.80;72.80
37050;DHT22;22958;51.232;6.826;2023-06-01T12:04:15;24.60;75.00
37050;DHT22;22958;51.232;6.826;2023-06-01T12:06:41;23.50;77.80
37050;DHT22;22958;51.232;6.826;2023-06-01T12:09:07;22.70;81.80
37050;DHT22;22958;51.232;6.826;2023-06-01T12:11:33;23.40;81.60
37050;DHT22;22958;51.232;6.826;2023-06-01T12:14:00;23.30;80.00
37050;DHT22;22958;51.232;6.826;2023-06-01T12:19:10;25.10;78.20
37050;DHT22;22958;51.232;6.826;2023-06-01T12:21:36;25.50;75.60
37050;DHT22;22958;51.232;6.826;2023-06-01T12:24:01;25.90;75.20
37050;DHT22;22958;51.232;6.826;2023-06-01T12:26:35;26.30;76.20
37050;DHT22;22958;51.232;6.826;2023-06-01T12:29:01;27.50;71.80
37050;DHT22;22958;51.232;6.826;2023-06-01T12:31:26;26.30;71.10
37050;DHT22;22958;51.232;6.826;2023-06-01T12:33:52;25.10;73.10
37050;DHT22;22958;51.232;6.826;2023-06-01T12:36:32;25.30;74.90
37050;DHT22;22958;51.232;6.826;2023-06-01T12:38:59;25.90;74.20
37050;DHT22;22958;51.232;6.826;2023-06-01T12:41:25;28.40;69.90
37050;DHT22;22958;51.232;6.826;2023-06-01T12:43:51;29.40;67.20
37050;DHT22;22958;51.232;6.826;2023-06-01T12:46:21;28.00;64.50
37050;DHT22;22958;51.232;6.826;2023-06-01T12:48:47;25.50;68.70
37050;DHT22;22958;51.232;6.826;2023-06-01T12:51:13;26.80;69.40
37050;DHT22;22958;51.232;6.826;2023-06-01T12:53:39;25.20;69.70
37050;DHT22;22958;51.232;6.826;2023-06-01T12:56:05;24.60;72.80
37050;DHT22;22958;51.232;6.826;2023-06-01T12:58:32;24.50;74.10
37050;DHT22;22958;51.232;6.826;2023-06-01T13:00:57;26.20;70.60
37050;DHT22;22958;51.232;6.826;2023-06-01T13:03:23;27.90;65.30
37050;DHT22;22958;51.232;6.826;2023-06-01T13:05:49;26.00;66.70
37050;DHT22;22958;51.232;6.826;2023-06-01T13:08:16;25.70;67.70
37050;DHT22;22958;51.232;6.826;2023-06-01T13:10:42;24.00;73.00
37050;DHT22;22958;51.232;6.826;2023-06-01T13:13:08;24.00;73.20
37050;DHT22;22958;51.232;6.826;2023-06-01T13:15:34;24.30;72.10
37050;DHT22;22958;51.232;6.826;2023-06-01T13:18:00;24.80;72.80
37050;DHT22;22958;51.232;6.826;2023-06-01T13:20:26;24.40;73.70
37050;DHT22;22958;51.232;6.826;2023-06-01T13:22:51;24.70;71.90
37050;DHT22;22958;51.232;6.826;2023-06-01T13:25:18;25.20;71.10
37050;DHT22;22958;51.232;6.826;2023-06-01T13:27:45;26.00;69.80
37050;DHT22;22958;51.232;6.826;2023-06-01T13:30:10;25.80;70.20
37050;DHT22;22958;51.232;6.826;2023-06-01T13:32:36;25.60;70.20
37050;DHT22;22958;51.232;6.826;2023-06-01T13:35:02;25.60;71.00
37050;DHT22;22958;51.232;6.826;2023-06-01T13:37:27;25.20;72.20
37050;DHT22;22958;51.232;6.826;2023-06-01T13:39:53;25.60;71.70
37050;DHT22;22958;51.232;6.826;2023-06-01T13:42:18;26.60;71.00
37050;DHT22;22958;51.232;6.826;2023-06-01T13:44:44;25.80;70.00
37050;DHT22;22958;51.232;6.826;2023-06-01T13:47:14;25.70;72.50
37050;DHT22;22958;51.232;6.826;2023-06-01T13:49:43;28.00;69.20
37050;DHT22;22958;51.232;6.826;2023-06-01T13:52:10;27.10;67.40
37050;DHT22;22958;51.232;6.826;2023-06-01T13:54:36;27.40;67.90
37050;DHT22;22958;51.232;6.826;2023-06-01T13:57:02;27.60;67.80
37050;DHT22;22958;51.232;6.826;2023-06-01T13:59:34;27.60;67.20
37050;DHT22;22958;51.232;6.826;2023-06-01T14:02:02;28.20;64.90
37050;DHT22;22958;51.232;6.826;2023-06-01T14:04:31;29.10;64.30
37050;DHT22;22958;51.232;6.826;2023-06-01T14:06:57;28.90;63.10
37050;DHT22;22958;51.232;6.826;2023-06-01T14:09:22;28.70;62.80
37050;DHT22;22958;51.232;6.826;2023-06-01T14:11:49;27.60;62.30
37050;DHT22;22958;51.232;6.826;2023-06-01T14:14:15;26.80;66.00
37050;DHT22;22958;51.232;6.826;2023-06-01T14:16:40;26.50;66.30
37050;DHT22;22958;51.232;6.826;2023-06-01T14:19:06;26.10;66.20
37050;DHT22;22958;51.232;6.826;2023-06-01T14:21:32;25.60;67.90
37050;DHT22;22958;51.232;6.826;2023-06-01T14:23:58;25.10;67.80
37050;DHT22;22958;51.232;6.826;2023-06-01T14:26:24;24.80;69.00
37050;DHT22;22958;51.232;6.826;2023-06-01T14:28:50;26.10;67.60
37050;DHT22;22958;51.232;6.826;2023-06-01T14:31:15;26.10;68.30
37050;DHT22;22958;51.232;6.826;2023-06-01T14:33:41;27.10;65.50
37050;DHT22;22958;51.232;6.826;2023-06-01T14:36:08;27.10;65.00
37050;DHT22;22958;51.232;6.826;2023-06-01T14:38:33;27.90;63.90
37050;DHT22;22958;51.232;6.826;2023-06-01T14:40:59;26.80;63.50
37050;DHT22;22958;51.232;6.826;2023-06-01T14:43:24;28.00;63.90
37050;DHT22;22958;51.232;6.826;2023-06-01T14:45:50;27.20;63.40
37050;DHT22;22958;51.232;6.826;2023-06-01T14:48:15;25.80;65.50
37050;DHT22;22958;51.232;6.826;2023-06-01T14:50:41;25.30;67.40
37050;DHT22;22958;51.232;6.826;2023-06-01T14:53:07;25.40;67.80
37050;DHT22;22958;51.232;6.826;2023-06-01T14:55:33;26.00;67.60
37050;DHT22;22958;51.232;6.826;2023-06-01T14:57:58;25.90;66.50
37050;DHT22;22958;51.232;6.826;2023-06-01T15:00:24;26.10;66.20
37050;DHT22;22958;51.232;6.826;2023-06-01T15:02:49;25.40;67.40
37050;DHT22;22958;51.232;6.826;2023-06-01T15:05:15;26.10;67.60
37050;DHT22;22958;51.232;6.826;2023-06-01T15:07:41;24.90;67.00
37050;DHT22;22958;51.232;6.826;2023-06-01T15:10:07;24.80;68.50
37050;DHT22;22958;51.232;6.826;2023-06-01T15:12:33;24.30;68.80
37050;DHT22;22958;51.232;6.826;2023-06-01T15:14:58;24.40;69.70
37050;DHT22;22958;51.232;6.826;2023-06-01T15:17:24;25.20;68.70
37050;DHT22;22958;51.232;6.826;2023-06-01T15:19:50;24.30;68.20
37050;DHT22;22958;51.232;6.826;2023-06-01T15:22:15;23.90;69.70
37050;DHT22;22958;51.232;6.826;2023-06-01T15:24:41;23.10;70.60
37050;DHT22;22958;51.232;6.826;2023-06-01T15:27:07;23.80;71.50
37050;DHT22;22958;51.232;6.826;2023-06-01T15:29:33;23.50;70.90
37050;DHT22;22958;51.232;6.826;2023-06-01T15:31:59;23.70;70.20
37050;DHT22;22958;51.232;6.826;2023-06-01T15:34:24;24.30;69.30
37050;DHT22;22958;51.232;6.826;2023-06-01T15:36:50;23.30;68.70
37050;DHT22;22958;51.232;6.826;2023-06-01T15:39:16;23.70;68.80
37050;DHT22;22958;51.232;6.826;2023-06-01T15:41:41;24.20;67.50
37050;DHT22;22958;51.232;6.826;2023-06-01T15:44:07;24.10;66.90
37050;DHT22;22958;51.232;6.826;2023-06-01T15:46:33;23.50;67.20
37050;DHT22;22958;51.232;6.826;2023-06-01T15:48:59;23.50;66.80
37050;DHT22;22958;51.232;6.826;2023-06-01T15:51:26;24.20;67.10
37050;DHT22;22958;51.232;6.826;2023-06-01T15:53:51;23.60;69.00
37050;DHT22;22958;51.232;6.826;2023-06-01T15:56:17;24.10;68.50
37050;DHT22;22958;51.232;6.826;2023-06-01T15:58:43;23.20;69.70
37050;DHT22;22958;51.232;6.826;2023-06-01T16:01:09;22.50;72.20
37050;DHT22;22958;51.232;6.826;2023-06-01T16:03:34;22.10;73.10
37050;DHT22;22958;51.232;6.826;2023-06-01T16:06:00;22.50;72.50